Latest Weather Observations for Yamba

IDN60801

Issued at 2:05 pm EST Wednesday 3 September 2014 (issued every 30 minutes, with the page automatically refreshed every 10 minutes)

About weather observations | Map of weather stations | Latest weather observations for NSW | Other Formats
Station Details ID: 058012 Name: YAMBA PILOT STATION Lat: -29.43 Lon: 153.36 Height: 27.4 m
Data from the previous 72 hours. | See also: Recent months at Yamba
Date/Time
EST
Temp
°C
App
Temp
°C
Dew
Point
Rel
Hum
%
Delta-T
°C
Wind Press
QNH
hPa
Press
MSL
hPa
Rain
since 9 am
mm
Dir
 
Spd
km/h
Gust
km/h
Spd
kts
Gust
kts
03/02:00pm 21.1 18.1 9.4 47 6.3 SSW 15 28 8 15 1007.6 - 0.0
03/01:30pm 20.7 17.6 9.0 47 6.2 SW 15 26 8 14 1007.5 - 0.0
03/01:00pm 20.7 17.8 9.6 49 5.9 WSW 15 26 8 14 1007.8 - 0.0
03/12:30pm 20.1 16.2 9.4 50 5.7 W 20 35 11 19 1007.6 - 0.0
03/12:00pm 19.4 15.9 8.7 50 5.6 WSW 17 30 9 16 1008.3 1008.3 0.0
03/11:30am 19.1 15.6 8.7 51 5.4 WSW 17 35 9 19 1008.6 - 0.0
03/11:00am 18.2 14.1 7.9 51 5.3 WSW 19 43 10 23 1008.8 - 0.0
03/10:30am 17.5 13.4 7.8 53 4.9 WSW 19 35 10 19 1008.9 - 0.0
03/10:00am 16.9 12.7 7.3 53 4.8 WSW 19 37 10 20 1009.4 - 0.0
03/09:30am 16.4 11.5 7.1 54 4.6 WSW 22 39 12 21 1009.4 - 0.0
03/09:00am 15.9 11.7 7.4 57 4.2 WSW 19 32 10 17 1009.4 1009.4 0.0
03/08:30am 15.2 11.4 7.5 60 3.8 W 17 35 9 19 1009.4 - 0.0
03/08:00am 14.5 10.4 6.3 58 3.9 W 17 28 9 15 1009.1 - 0.0
03/07:30am 14.0 10.0 6.6 61 3.6 W 17 30 9 16 1009.1 - 0.0
03/07:00am 12.4 8.3 6.2 66 2.9 W 17 24 9 13 1009.2 - 0.0
03/06:30am 11.6 7.5 6.1 69 2.6 W 17 22 9 12 1008.8 - 0.0
03/06:00am 11.3 7.1 5.8 69 2.6 W 17 24 9 13 1008.5 1008.5 0.0
03/05:30am 11.2 7.0 5.7 69 2.5 W 17 24 9 13 1008.4 - 0.0
03/05:00am 11.5 7.6 5.2 65 2.9 W 15 26 8 14 1008.2 - 0.0
03/04:30am 11.6 7.7 5.5 66 2.8 W 15 20 8 11 1008.2 - 0.0
03/04:00am 11.9 7.6 5.3 64 3.0 W 17 20 9 11 1008.1 - 0.0
03/03:30am 12.2 7.9 5.4 63 3.2 W 17 26 9 14 1008.2 - 0.0
03/03:00am 12.5 8.3 5.7 63 3.2 W 17 24 9 13 1008.1 1008.1 0.0
03/02:30am 12.9 7.9 6.3 64 3.1 W 22 30 12 16 1008.5 - 0.0
03/02:00am 12.8 8.6 5.9 63 3.3 W 17 24 9 13 1009.1 - 0.0
03/01:30am 11.9 8.9 6.2 68 2.7 WNW 11 15 6 8 1009.7 - 0.0
03/01:00am 12.9 10.6 5.6 61 3.4 WSW 7 17 4 9 1010.3 - 0.0
03/12:30am 13.8 11.1 5.4 57 3.9 WSW 9 20 5 11 1010.5 - 0.0
03/12:00am 14.3 11.0 6.2 58 3.9 W 13 19 7 10 1010.5 1010.5 0.0
 
Date/Time
EST
Temp
°C
App
Temp
°C
Dew
Point
Rel
Hum
%
Delta-T
°C
Wind Press
QNH
hPa
Press
MSL
hPa
Rain
since 9 am
mm
Dir
 
Spd
km/h
Gust
km/h
Spd
kts
Gust
kts
02/11:30pm 14.6 10.1 6.2 57 4.0 W 19 32 10 17 1010.2 - 0.0
02/11:00pm 14.4 10.4 6.5 59 3.8 W 17 24 9 13 1010.3 - 0.0
02/10:30pm 14.7 10.4 6.8 59 3.8 W 19 32 10 17 1010.2 - 0.0
02/10:00pm 15.1 11.1 6.7 57 4.1 W 17 30 9 16 1010.6 - 0.0
02/09:30pm 15.2 10.3 7.0 58 4.0 W 22 32 12 17 1010.4 - 0.0
02/09:00pm 15.6 11.3 7.1 57 4.2 W 19 26 10 14 1010.6 1010.6 0.0
02/08:30pm 16.4 12.5 7.3 55 4.5 W 17 32 9 17 1010.6 - 0.0
02/08:00pm 17.2 13.5 7.8 54 4.8 WSW 17 28 9 15 1010.3 - 0.0
02/07:30pm 17.2 13.5 8.1 55 4.6 SW 17 32 9 17 1009.9 - 0.0
02/07:00pm 17.8 14.6 8.6 55 4.7 SW 15 32 8 17 1009.3 - 0.0
02/06:30pm 18.6 15.6 9.1 54 5.0 WSW 15 39 8 21 1008.5 - 0.0
02/06:00pm 20.2 15.9 9.2 49 5.8 W 22 39 12 21 1007.6 1007.5 0.0
02/05:30pm 20.8 15.8 9.7 49 6.0 W 26 43 14 23 1006.9 - 0.0
02/05:03pm 22.0 16.7 11.4 51 5.9 W 30 48 16 26 1006.1 - 0.0
02/05:00pm 22.2 16.9 11.3 50 6.1 W 30 48 16 26 1006.0 - 0.0
02/04:40pm 23.2 18.3 11.3 47 6.7 WNW 28 50 15 27 1005.4 - 0.0
02/04:30pm 23.4 19.0 11.8 48 6.6 WNW 26 46 14 25 1005.2 - 0.0
02/04:06pm 24.1 19.3 11.8 46 7.0 W 28 46 15 25 1004.7 - 0.0
02/04:00pm 24.0 19.7 12.0 47 6.8 WNW 26 43 14 23 1004.6 - 0.0
02/03:51pm 23.8 19.2 12.4 48 6.5 W 28 46 15 25 1004.5 - 0.0
02/03:50pm 23.7 19.1 12.4 49 6.5 W 28 43 15 23 1004.5 - 0.0
02/03:49pm 23.7 19.1 12.4 49 6.5 W 28 43 15 23 1004.5 - 0.0
02/03:30pm 22.2 24.4 19.7 86 1.6 N 7 11 4 6 1004.8 - 0.0
02/03:00pm 21.9 24.2 19.8 88 1.3 NNE 7 15 4 8 1004.8 1004.8 0.0
02/02:30pm 21.8 24.0 20.3 91 1.0 NNE 9 19 5 10 1004.8 - 0.0
02/02:00pm 21.1 22.4 19.2 89 1.2 ENE 11 17 6 9 1004.6 - 0.0
02/01:58pm 20.6 21.2 18.5 88 1.3 ENE 13 17 7 9 1004.5 - 0.0
02/01:30pm 21.2 22.5 18.4 84 1.7 NE 9 15 5 8 1005.7 - 0.0
02/01:00pm 25.0 26.7 19.4 71 3.6 NNW 9 13 5 7 1006.5 - 0.0
02/12:30pm 23.7 25.3 19.2 76 2.9 NNW 9 15 5 8 1007.2 - 0.0
02/12:00pm 20.9 21.3 17.3 80 2.2 NW 11 17 6 9 1007.8 1007.8 0.0
02/11:30am 19.7 20.8 17.1 85 1.6 NNE 7 13 4 7 1008.1 - 0.0
02/11:00am 21.2 21.9 18.0 82 2.0 NNW 11 24 6 13 1008.8 - 0.0
02/10:30am 20.1 20.4 16.9 82 1.9 NNW 11 19 6 10 1009.2 - 0.0
02/10:00am 18.5 18.6 16.5 88 1.2 NNW 11 17 6 9 1010.1 - 0.0
02/09:30am 17.3 17.6 16.0 92 0.8 NNW 9 13 5 7 1010.5 - 0.0
02/09:00am 17.0 17.7 16.2 95 0.5 NNW 7 11 4 6 1010.9 1010.9 0.0
02/08:30am 16.7 16.2 15.9 95 0.5 NNW 13 20 7 11 1011.1 - 0.0
02/08:00am 16.1 15.6 15.8 98 0.2 NNW 13 19 7 10 1011.2 - 0.0
02/07:30am 16.0 15.8 15.8 99 0.1 NNW 11 17 6 9 1011.3 - 0.0
02/07:00am 16.0 16.2 15.8 99 0.1 NW 9 15 5 8 1011.3 - 0.0
02/06:30am 16.0 16.2 15.8 99 0.1 NW 9 11 5 6 1011.0 - 0.0
02/06:00am 16.1 15.6 15.9 99 0.1 NW 13 19 7 10 1011.1 1011.1 0.0
02/05:30am 16.2 15.4 16.0 99 0.1 NW 15 19 8 10 1011.4 - 0.0
02/05:00am 15.9 15.3 15.7 99 0.1 NW 13 19 7 10 1011.3 - 0.0
02/04:30am 15.4 15.5 15.4 100 0.0 NW 9 13 5 7 1011.8 - 0.0
02/04:00am 15.4 14.6 15.2 99 0.1 WNW 13 17 7 9 1011.6 - 0.0
02/03:30am 15.6 15.4 15.6 100 0.0 NW 11 15 6 8 1011.8 - 0.0
02/03:00am 15.2 15.1 15.0 99 0.1 N 9 11 5 6 1012.1 1012.1 0.0
02/02:30am 15.2 15.5 15.0 99 0.1 N 7 9 4 5 1012.3 - 0.0
02/02:00am 16.0 16.2 15.8 99 0.1 NNW 9 15 5 8 1012.6 - 0.0
02/01:30am 15.8 15.9 15.6 99 0.1 NNW 9 13 5 7 1012.8 - 0.0
02/01:00am 16.0 15.8 15.8 99 0.1 NNW 11 15 6 8 1013.0 - 0.0
02/12:30am 16.0 16.2 15.8 99 0.1 NW 9 15 5 8 1013.5 - 0.0
02/12:00am 16.0 16.2 15.8 99 0.1 NW 9 15 5 8 1013.7 1013.7 0.0
 
Date/Time
EST
Temp
°C
App
Temp
°C
Dew
Point
Rel
Hum
%
Delta-T
°C
Wind Press
QNH
hPa
Press
MSL
hPa
Rain
since 9 am
mm
Dir
 
Spd
km/h
Gust
km/h
Spd
kts
Gust
kts
01/11:30pm 16.2 16.5 16.0 99 0.1 NW 9 13 5 7 1014.0 - 0.0
01/11:00pm 16.4 16.5 16.4 100 0.0 NW 11 17 6 9 1014.1 - 0.0
01/10:30pm 16.5 16.6 16.5 100 0.0 NW 11 19 6 10 1014.1 - 0.0
01/10:00pm 16.5 17.4 16.5 100 0.0 NNW 7 11 4 6 1014.1 - 0.0
01/09:30pm 17.3 18.1 17.3 100 0.0 NNW 9 13 5 7 1014.4 - 0.0
01/09:00pm 18.1 18.4 17.9 99 0.1 NNW 13 20 7 11 1014.6 1014.6 0.0
01/08:30pm 18.8 19.4 18.6 99 0.1 N 13 20 7 11 1014.5 - 0.0
01/08:00pm 19.0 19.8 19.0 100 0.0 N 13 24 7 13 1014.7 - 0.0
01/07:30pm 19.2 19.7 19.2 100 0.0 N 15 26 8 14 1014.5 - 0.0
01/07:00pm 19.1 19.5 19.1 100 0.0 N 15 22 8 12 1014.4 - 0.0
01/06:30pm 19.1 19.8 18.9 99 0.1 N 13 24 7 13 1014.1 - 0.0
01/06:00pm 19.2 19.6 19.0 99 0.1 N 15 24 8 13 1013.9 1013.8 0.0
01/05:30pm 19.3 19.7 19.1 99 0.1 N 15 26 8 14 1013.8 - 0.0
01/05:00pm 19.9 21.0 19.6 98 0.2 N 13 24 7 13 1013.8 - 0.0
01/04:30pm 20.2 21.2 19.4 95 0.5 N 13 24 7 13 1013.6 - 0.0
01/04:00pm 20.8 21.6 19.8 94 0.6 NNE 15 26 8 14 1013.7 - 0.0
01/03:30pm 21.1 21.8 19.7 92 0.9 NNE 15 24 8 13 1013.8 - 0.0
01/03:00pm 22.0 23.2 20.6 92 0.9 N 15 22 8 12 1014.0 1014.0 0.0
01/02:30pm 22.4 23.7 20.9 91 1.0 N 15 24 8 13 1014.4 - 0.0
01/02:00pm 22.3 24.4 20.9 92 0.9 N 11 19 6 10 1014.8 - 0.0
01/01:30pm 22.0 24.1 21.0 94 0.7 NNE 11 20 6 11 1015.2 - 0.0
01/01:00pm 21.4 23.0 19.9 91 1.0 NE 11 20 6 11 1015.4 - 0.0
01/12:30pm 21.9 23.3 19.6 87 1.5 NE 11 19 6 10 1015.8 - 0.0
01/12:00pm 22.5 24.9 20.8 90 1.1 NNE 9 13 5 7 1016.6 1016.5 0.0
01/11:30am 22.3 25.0 20.6 90 1.1 NNE 7 13 4 7 1017.2 - 0.0
01/11:00am 22.3 25.1 21.5 95 0.5 N 9 15 5 8 1017.8 - 0.0
01/10:30am 19.9 21.5 19.1 95 0.5 NE 9 11 5 6 1018.3 - 0.0
01/10:00am 19.7 21.6 18.9 95 0.5 ENE 7 9 4 5 1018.6 - 0.0
01/09:30am 19.6 20.8 18.3 92 0.8 WNW 9 11 5 6 1018.9 - 0.0
01/09:00am 19.0 20.8 18.8 99 0.1 NW 7 9 4 5 1019.0 1019.0 0.0
01/08:30am 17.5 19.3 17.5 100 0.0 WNW 4 7 2 4 1019.1 - 0.0
01/08:00am 16.4 17.4 16.4 100 0.0 SW 6 7 3 4 1019.0 - 0.0
01/07:30am 15.7 17.2 15.7 100 0.0 SW 2 7 1 4 1018.9 - 0.0
01/07:00am 14.9 15.4 14.9 100 0.0 WSW 6 9 3 5 1018.7 - 0.0
01/06:30am 14.6 14.4 14.6 100 0.0 WSW 9 13 5 7 1018.6 - 0.0
01/06:00am 14.6 14.4 14.6 100 0.0 W 9 11 5 6 1018.3 1018.2 0.0
01/05:30am 14.7 14.5 14.7 100 0.0 WSW 9 11 5 6 1017.8 - 0.0
01/05:00am 14.6 14.4 14.6 100 0.0 WSW 9 11 5 6 1017.7 - 0.0
01/04:30am 14.6 14.4 14.6 100 0.0 WSW 9 11 5 6 1017.6 - 0.0
01/04:00am 14.8 14.6 14.8 100 0.0 WSW 9 11 5 6 1017.6 - 0.0
01/03:30am 15.0 15.3 15.0 100 0.0 WSW 7 9 4 5 1017.5 - 0.0
01/03:00am 15.1 15.1 15.1 100 0.0 WSW 9 11 5 6 1017.7 1017.6 0.0
01/02:30am 15.3 15.9 15.3 100 0.0 WSW 6 9 3 5 1017.8 - 0.0
01/02:00am 15.6 16.1 15.6 100 0.0 WSW 7 9 4 5 1017.9 - 0.0
01/01:30am 15.7 16.3 15.7 100 0.0 WSW 7 9 4 5 1018.2 - 0.0
01/01:00am 15.8 16.0 15.8 100 0.0 W 9 11 5 6 1018.4 - 0.0
01/12:30am 15.8 16.0 15.8 100 0.0 W 9 11 5 6 1018.5 - 0.0
01/12:00am 15.8 16.4 15.8 100 0.0 W 7 11 4 6 1018.5 1018.4 0.0
 
Date/Time
EST
Temp
°C
App
Temp
°C
Dew
Point
Rel
Hum
%
Delta-T
°C
Wind Press
QNH
hPa
Press
MSL
hPa
Rain
since 9 am
mm
Dir
 
Spd
km/h
Gust
km/h
Spd
kts
Gust
kts
31/11:30pm 15.9 16.2 15.9 100 0.0 WSW 9 11 5 6 1018.4 - 0.0
31/11:00pm 16.2 16.9 16.2 100 0.0 SW 7 11 4 6 1018.4 - 0.0
31/10:30pm 16.6 17.4 16.4 99 0.1 SW 7 9 4 5 1018.6 - 0.0
31/10:00pm 16.8 17.7 16.6 99 0.1 SSW 7 9 4 5 1018.7 - 0.0
31/09:30pm 18.0 18.6 17.8 99 0.1 SSE 11 17 6 9 1018.6 - 0.0
31/09:00pm 18.0 17.9 17.8 99 0.1 SE 15 19 8 10 1018.6 1018.6 0.0
31/08:30pm 18.0 17.5 17.8 99 0.1 SE 17 20 9 11 1018.7 - 0.0
31/08:00pm 18.0 16.5 17.7 98 0.2 SE 22 26 12 14 1018.3 - 0.0
31/07:30pm 18.1 16.7 17.9 99 0.1 SE 22 28 12 15 1018.3 - 0.0
31/07:00pm 18.1 15.9 17.8 98 0.2 SE 26 32 14 17 1017.9 - 0.0
31/06:30pm 18.1 16.3 17.8 98 0.2 SE 24 30 13 16 1017.6 - 0.0
31/06:00pm 18.1 15.8 17.6 97 0.3 SE 26 33 14 18 1017.3 1017.2 0.0
31/05:30pm 18.2 16.0 17.9 98 0.2 SE 26 32 14 17 1017.0 - 0.0
31/05:00pm 18.5 16.2 17.7 95 0.5 SE 26 35 14 19 1016.8 - 0.0
31/04:30pm 18.7 15.9 17.4 92 0.8 SE 28 32 15 17 1016.7 - 0.0
31/04:00pm 19.1 16.7 17.4 90 1.0 SE 26 32 14 17 1016.6 - 0.0
31/03:30pm 19.4 17.4 17.4 88 1.2 SE 24 30 13 16 1016.4 - 0.0
31/03:00pm 19.9 18.4 17.7 87 1.4 SE 22 28 12 15 1016.5 1016.4 0.0
31/02:30pm 19.9 18.8 17.7 87 1.4 SE 20 24 11 13 1016.6 - 0.0

Other Formats:

Comma delimited format used in spreadsheet applications
http://www.bom.gov.au/fwo/IDN60801/IDN60801.94589.axf

JavaScript Object Notation format (JSON) in row-major order
http://www.bom.gov.au/fwo/IDN60801/IDN60801.94589.json